createdAt,value
2023-03-20T00:02:24.422Z,23.40
2023-03-20T00:04:51.767Z,22.98
2023-03-20T00:07:19.135Z,24.35
2023-03-20T00:09:46.265Z,22.40
2023-03-20T00:12:23.082Z,21.95
2023-03-20T00:14:50.396Z,23.40
2023-03-20T00:17:20.786Z,22.63
2023-03-20T00:19:48.034Z,22.90
2023-03-20T00:22:15.524Z,23.73
2023-03-20T00:24:42.714Z,24.20
2023-03-20T00:27:14.455Z,24.27
2023-03-20T00:29:42.024Z,24.90
2023-03-20T00:32:13.194Z,19.00
2023-03-20T00:34:41.163Z,20.92
2023-03-20T00:37:09.873Z,18.20
2023-03-20T00:39:37.067Z,18.75
2023-03-20T00:42:06.716Z,18.90
2023-03-20T00:44:34.961Z,18.93
2023-03-20T00:47:05.190Z,17.48
2023-03-20T00:52:20.618Z,19.48
2023-03-20T00:54:47.919Z,19.38
2023-03-20T00:57:22.772Z,19.20
2023-03-20T01:00:07.160Z,20.67
2023-03-20T01:02:34.883Z,22.15
2023-03-20T01:05:02.310Z,21.95
2023-03-20T01:07:29.537Z,21.38
2023-03-20T01:09:56.865Z,21.70
2023-03-20T01:12:24.279Z,20.20
2023-03-20T01:14:55.595Z,20.10
2023-03-20T01:17:24.437Z,20.73
2023-03-20T01:19:52.317Z,21.80
2023-03-20T01:22:20.086Z,24.02
2023-03-20T01:24:47.584Z,21.52
2023-03-20T01:27:19.935Z,24.55
2023-03-20T01:29:47.422Z,27.40
2023-03-20T01:32:17.584Z,27.83
2023-03-20T01:34:44.802Z,26.73
2023-03-20T01:37:17.291Z,28.52
2023-03-20T01:39:44.554Z,27.80
2023-03-20T01:42:15.877Z,27.70
2023-03-20T01:44:43.521Z,27.88
2023-03-20T01:47:23.634Z,26.38
2023-03-20T01:50:03.144Z,28.33
2023-03-20T01:52:30.439Z,26.52
2023-03-20T01:54:57.612Z,26.08
2023-03-20T01:57:26.044Z,26.33
2023-03-20T02:00:19.789Z,27.00
2023-03-20T02:02:48.300Z,28.17
2023-03-20T02:05:19.414Z,27.92
2023-03-20T02:07:54.570Z,26.42
2023-03-20T02:10:22.429Z,24.67
2023-03-20T02:12:49.740Z,23.73
2023-03-20T02:15:18.385Z,25.00
2023-03-20T02:17:45.984Z,26.75
2023-03-20T02:24:04.770Z,27.13
2023-03-20T02:26:38.216Z,25.13
2023-03-20T02:29:25.724Z,24.55
2023-03-20T02:32:30.273Z,21.95
2023-03-20T02:35:05.655Z,21.42
2023-03-20T02:38:00.042Z,21.33
2023-03-20T02:41:05.996Z,21.23
2023-03-20T02:43:43.382Z,20.08
2023-03-20T02:46:45.606Z,19.33
2023-03-20T02:49:21.646Z,19.95
2023-03-20T02:52:07.086Z,19.02
2023-03-20T02:54:53.798Z,19.10
2023-03-20T02:57:34.532Z,19.52
2023-03-20T03:00:20.190Z,18.90
2023-03-20T03:02:58.594Z,18.92
2023-03-20T03:05:37.810Z,20.48
2023-03-20T03:08:07.092Z,18.13
2023-03-20T03:10:43.538Z,18.58
2023-03-20T03:13:17.249Z,18.30
2023-03-20T03:15:48.586Z,17.80
2023-03-20T03:18:21.825Z,18.45
2023-03-20T03:20:52.763Z,17.10
2023-03-20T03:26:37.679Z,15.25
2023-03-20T03:29:13.014Z,16.35
2023-03-20T03:31:41.072Z,16.13
2023-03-20T03:34:15.836Z,16.15
2023-03-20T03:37:12.272Z,16.23
2023-03-20T03:40:05.699Z,15.52
2023-03-20T03:42:49.597Z,15.73
2023-03-20T03:45:25.037Z,15.10
2023-03-20T03:48:01.398Z,15.52
2023-03-20T03:50:41.846Z,16.23
2023-03-20T03:53:12.331Z,16.05
2023-03-20T03:58:40.624Z,16.92
2023-03-20T04:01:12.166Z,17.63
2023-03-20T04:03:49.104Z,16.67
2023-03-20T04:06:17.664Z,16.67
2023-03-20T04:08:45.392Z,17.08
2023-03-20T04:11:26.792Z,17.00
2023-03-20T04:13:54.607Z,17.55
2023-03-20T04:16:23.781Z,17.30
2023-03-20T04:18:51.326Z,17.63
2023-03-20T04:21:19.067Z,16.77
2023-03-20T04:23:47.027Z,15.85
2023-03-20T04:26:14.460Z,15.38
2023-03-20T04:28:41.829Z,16.73
2023-03-20T04:31:09.122Z,17.08
2023-03-20T04:33:36.700Z,17.10
2023-03-20T04:36:04.194Z,16.25
2023-03-20T04:38:31.598Z,16.30
2023-03-20T04:40:58.902Z,16.08
2023-03-20T04:43:26.320Z,16.38
2023-03-20T04:45:53.652Z,16.65
2023-03-20T04:48:20.958Z,15.13
2023-03-20T04:50:48.841Z,15.52
2023-03-20T04:53:16.633Z,15.50
2023-03-20T04:55:46.181Z,14.15
2023-03-20T04:58:13.476Z,13.02
2023-03-20T05:00:40.958Z,12.77
2023-03-20T05:03:08.289Z,12.38
2023-03-20T05:05:38.201Z,13.00
2023-03-20T05:08:06.403Z,13.57
2023-03-20T05:10:33.958Z,13.77
2023-03-20T05:13:01.272Z,14.68
2023-03-20T05:15:28.567Z,15.00
2023-03-20T05:26:16.013Z,17.10
2023-03-20T05:31:10.752Z,14.48
2023-03-20T05:33:38.383Z,17.73
2023-03-20T05:36:06.498Z,16.88
2023-03-20T05:38:34.179Z,17.83
2023-03-20T05:41:01.797Z,15.57
2023-03-20T05:43:29.388Z,15.32
2023-03-20T05:45:57.238Z,14.00
2023-03-20T05:48:25.050Z,15.10
2023-03-20T05:50:52.324Z,16.20
2023-03-20T05:53:19.579Z,16.95
2023-03-20T05:55:46.817Z,16.00
2023-03-20T05:58:14.056Z,14.77
2023-03-20T06:00:41.339Z,58.50
2023-03-20T06:03:08.765Z,58.88
2023-03-20T06:05:37.078Z,60.53
2023-03-20T06:08:05.151Z,66.20
2023-03-20T06:10:32.490Z,42.80
2023-03-20T06:13:01.304Z,17.80
2023-03-20T06:15:29.140Z,15.45
2023-03-20T06:17:57.143Z,14.63
2023-03-20T06:20:24.584Z,15.18
2023-03-20T06:22:52.080Z,15.45
2023-03-20T06:25:20.100Z,15.75
2023-03-20T06:27:48.598Z,15.32
2023-03-20T06:30:17.000Z,14.82
2023-03-20T06:32:44.971Z,15.27
2023-03-20T06:35:14.027Z,15.77
2023-03-20T06:37:41.384Z,15.02
2023-03-20T06:40:10.310Z,15.00
2023-03-20T06:42:37.635Z,15.65
2023-03-20T06:45:06.829Z,16.02
2023-03-20T06:47:34.154Z,15.25
2023-03-20T06:50:01.442Z,15.10
2023-03-20T06:52:28.660Z,16.63
2023-03-20T06:54:56.605Z,15.88
2023-03-20T06:57:24.539Z,16.35
2023-03-20T06:59:51.851Z,16.52
2023-03-20T07:02:19.601Z,17.08
2023-03-20T07:04:47.270Z,17.05
2023-03-20T07:07:14.615Z,38.00
2023-03-20T07:09:41.908Z,26.98
2023-03-20T07:12:18.494Z,24.88
2023-03-20T07:14:46.277Z,21.83
2023-03-20T07:17:13.869Z,18.63
2023-03-20T07:22:31.666Z,17.10
2023-03-20T07:24:59.120Z,16.58
2023-03-20T07:27:26.478Z,17.30
2023-03-20T07:29:54.128Z,18.35
2023-03-20T07:32:21.380Z,17.75
2023-03-20T07:34:50.353Z,19.00
2023-03-20T07:37:17.785Z,19.55
2023-03-20T07:39:45.187Z,17.40
2023-03-20T07:42:13.962Z,18.48
2023-03-20T07:44:41.278Z,18.58
2023-03-20T07:47:08.668Z,16.92
2023-03-20T07:49:36.034Z,18.58
2023-03-20T07:52:03.383Z,19.25
2023-03-20T07:54:30.972Z,18.35
2023-03-20T07:56:58.231Z,19.20
2023-03-20T07:59:25.530Z,18.40
2023-03-20T08:01:52.812Z,19.30
2023-03-20T08:04:22.773Z,17.58
2023-03-20T08:06:51.112Z,18.35
2023-03-20T08:09:21.082Z,17.77
2023-03-20T08:11:48.318Z,18.17
2023-03-20T08:14:16.015Z,18.50
2023-03-20T08:16:43.290Z,17.80
2023-03-20T08:19:10.727Z,17.42
2023-03-20T08:21:37.931Z,17.95
2023-03-20T08:24:05.492Z,17.15
2023-03-20T08:26:32.722Z,17.80
2023-03-20T08:29:19.521Z,18.80
2023-03-20T08:31:47.036Z,16.50
2023-03-20T08:34:14.360Z,17.48
2023-03-20T08:36:41.700Z,16.48
2023-03-20T08:39:09.620Z,16.75
2023-03-20T08:41:42.047Z,15.40
2023-03-20T08:44:09.422Z,15.95
2023-03-20T08:46:36.866Z,13.32
2023-03-20T08:49:05.327Z,12.43
2023-03-20T08:51:33.785Z,13.02
2023-03-20T08:54:01.364Z,12.07
2023-03-20T08:56:30.079Z,13.00
2023-03-20T08:58:57.261Z,14.38
2023-03-20T09:01:28.453Z,13.43
2023-03-20T09:03:59.873Z,12.60
2023-03-20T09:06:27.283Z,13.00
2023-03-20T09:08:56.836Z,12.85
2023-03-20T09:11:24.748Z,12.48
2023-03-20T09:13:52.006Z,13.30
2023-03-20T09:16:20.201Z,12.20
2023-03-20T09:18:47.429Z,10.52
2023-03-20T09:21:15.265Z,9.80
2023-03-20T09:23:42.460Z,9.93
2023-03-20T09:26:09.653Z,9.35
2023-03-20T09:28:37.175Z,8.82
2023-03-20T09:31:04.538Z,7.35
2023-03-20T09:33:31.964Z,8.50
2023-03-20T09:35:59.270Z,7.53
2023-03-20T09:38:26.532Z,8.80
2023-03-20T09:41:02.266Z,7.93
2023-03-20T09:43:58.048Z,6.25
2023-03-20T09:47:08.731Z,7.45
2023-03-20T09:50:04.903Z,7.45
2023-03-20T09:53:10.107Z,7.60
2023-03-20T09:55:40.362Z,7.95
2023-03-20T09:58:33.980Z,7.82
2023-03-20T10:01:05.615Z,7.10
2023-03-20T10:03:56.911Z,6.72
2023-03-20T10:06:24.212Z,7.00
2023-03-20T10:08:52.174Z,7.00
2023-03-20T10:11:44.620Z,6.68
2023-03-20T10:14:49.306Z,6.63
2023-03-20T10:17:34.803Z,7.20
2023-03-20T10:20:13.617Z,5.45
2023-03-20T10:22:50.238Z,6.95
2023-03-20T10:25:38.392Z,7.25
2023-03-20T10:28:21.188Z,6.82
2023-03-20T10:31:02.529Z,6.97
2023-03-20T10:33:57.638Z,6.45
2023-03-20T10:36:46.981Z,6.43
2023-03-20T10:39:29.230Z,6.53
2023-03-20T10:42:02.332Z,6.18
2023-03-20T10:44:43.081Z,6.82
2023-03-20T10:47:16.948Z,9.00
2023-03-20T10:49:51.331Z,10.57
2023-03-20T10:52:36.326Z,9.73
2023-03-20T10:55:20.001Z,7.25
2023-03-20T10:57:53.181Z,7.55
2023-03-20T11:00:24.546Z,8.45
2023-03-20T11:02:54.312Z,8.55
2023-03-20T11:05:34.218Z,6.63
2023-03-20T11:08:08.609Z,6.70
2023-03-20T11:10:38.399Z,6.75
2023-03-20T11:13:30.317Z,7.50
2023-03-20T11:16:07.760Z,6.38
2023-03-20T11:18:35.043Z,6.50
2023-03-20T11:21:03.265Z,6.50
2023-03-20T11:23:35.114Z,6.85
2023-03-20T11:26:06.901Z,6.30
2023-03-20T11:28:37.596Z,6.22
2023-03-20T11:31:14.090Z,5.78
2023-03-20T11:33:46.040Z,5.38
2023-03-20T11:36:30.777Z,5.82
2023-03-20T11:39:17.189Z,5.50
2023-03-20T11:41:51.593Z,5.72
2023-03-20T11:44:36.785Z,5.40
2023-03-20T11:47:14.875Z,5.20
2023-03-20T11:50:01.097Z,5.72
2023-03-20T11:52:36.316Z,5.75
2023-03-20T11:55:08.256Z,5.63
2023-03-20T11:57:38.343Z,5.57
2023-03-20T12:00:11.616Z,5.45
2023-03-20T12:02:42.046Z,5.00
2023-03-20T12:08:17.896Z,5.05
2023-03-20T12:11:13.652Z,5.22
2023-03-20T12:13:44.903Z,5.20
2023-03-20T12:16:15.869Z,4.85
2023-03-20T12:18:52.530Z,4.68
2023-03-20T12:21:38.452Z,5.22
2023-03-20T12:24:12.134Z,5.45
2023-03-20T12:27:23.133Z,5.43
2023-03-20T12:30:00.529Z,5.95
2023-03-20T12:32:52.402Z,5.35
2023-03-20T12:35:25.334Z,5.78
2023-03-20T12:37:53.133Z,5.05
2023-03-20T12:40:27.854Z,5.57
2023-03-20T12:43:01.354Z,5.35
2023-03-20T12:45:44.959Z,4.93
2023-03-20T12:48:57.019Z,5.15
2023-03-20T12:51:54.115Z,5.10
2023-03-20T12:54:33.643Z,5.22
2023-03-20T12:57:12.815Z,5.22
2023-03-20T12:59:54.618Z,5.10
2023-03-20T13:02:34.713Z,5.07
2023-03-20T13:05:13.775Z,5.50
2023-03-20T13:07:56.157Z,4.43
2023-03-20T13:10:30.721Z,5.10
2023-03-20T13:13:09.064Z,4.47
2023-03-20T13:15:59.066Z,4.53
2023-03-20T13:19:00.484Z,4.07
2023-03-20T13:21:33.275Z,4.40
2023-03-20T13:24:20.945Z,5.38
2023-03-20T13:27:01.670Z,5.07
2023-03-20T13:35:04.863Z,4.80
2023-03-20T13:37:40.516Z,4.82
2023-03-20T13:40:13.651Z,4.82
2023-03-20T13:43:13.292Z,6.03
2023-03-20T13:45:42.438Z,4.88
2023-03-20T13:48:21.458Z,5.45
2023-03-20T13:51:07.331Z,5.00
2023-03-20T13:53:57.450Z,5.43
2023-03-20T13:58:56.939Z,5.38
2023-03-20T14:01:49.429Z,5.00
2023-03-20T14:04:20.208Z,4.47
2023-03-20T14:06:50.605Z,4.13
2023-03-20T14:09:37.140Z,4.35
2023-03-20T14:12:10.999Z,5.15
2023-03-20T14:15:04.143Z,3.72
2023-03-20T14:17:32.564Z,4.25
2023-03-20T14:20:14.430Z,3.95
2023-03-20T14:22:43.052Z,3.50
2023-03-20T14:25:20.907Z,4.10
2023-03-20T14:27:58.960Z,4.35
2023-03-20T14:30:47.677Z,4.03
2023-03-20T14:33:18.135Z,4.43
2023-03-20T14:35:50.817Z,4.70
2023-03-20T14:38:21.154Z,4.60
2023-03-20T14:41:08.578Z,4.40
2023-03-20T14:43:51.301Z,4.63
2023-03-20T14:46:32.454Z,4.15
2023-03-20T14:49:04.908Z,4.50
2023-03-20T14:51:44.243Z,4.40
2023-03-20T14:57:29.891Z,4.18
2023-03-20T14:59:57.136Z,4.53
2023-03-20T15:02:30.086Z,4.88
2023-03-20T15:04:57.840Z,4.75
2023-03-20T15:07:28.905Z,4.28
2023-03-20T15:09:59.903Z,4.50
2023-03-20T15:12:29.173Z,4.55
2023-03-20T15:15:01.954Z,5.30
2023-03-20T15:17:36.388Z,4.53
2023-03-20T15:20:20.427Z,4.88
2023-03-20T15:22:59.072Z,4.75
2023-03-20T15:25:33.314Z,4.93
2023-03-20T15:28:00.767Z,4.90
2023-03-20T15:30:32.167Z,4.97
2023-03-20T15:32:59.607Z,5.35
2023-03-20T15:35:27.709Z,5.28
2023-03-20T15:40:50.724Z,5.47
2023-03-20T15:43:26.854Z,5.70
2023-03-20T15:46:16.331Z,5.63
2023-03-20T15:48:50.732Z,5.97
2023-03-20T15:51:19.869Z,5.88
2023-03-20T15:53:48.780Z,5.65
2023-03-20T15:56:19.726Z,6.43
2023-03-20T15:58:55.450Z,6.00
2023-03-20T16:01:26.498Z,6.45
2023-03-20T16:03:59.422Z,6.47
2023-03-20T16:06:27.786Z,7.63
2023-03-20T16:09:00.974Z,7.22
2023-03-20T16:11:43.313Z,7.20
2023-03-20T16:14:20.633Z,7.07
2023-03-20T16:16:51.660Z,6.93
2023-03-20T16:19:19.285Z,7.32
2023-03-20T16:21:53.566Z,7.25
2023-03-20T16:27:35.216Z,7.93
2023-03-20T16:30:18.970Z,8.55
2023-03-20T16:32:56.001Z,8.65
2023-03-20T16:35:32.351Z,13.73
2023-03-20T16:38:02.543Z,11.35
2023-03-20T16:40:34.430Z,11.63
2023-03-20T16:43:16.196Z,56.22
2023-03-20T16:45:47.269Z,24.05
2023-03-20T16:48:24.004Z,54.35
2023-03-20T16:50:58.268Z,42.40
2023-03-20T16:53:31.462Z,60.15
2023-03-20T16:55:59.348Z,24.95
2023-03-20T16:58:33.542Z,16.45
2023-03-20T17:01:04.341Z,13.57
2023-03-20T17:03:52.735Z,25.83
2023-03-20T17:06:21.664Z,13.60
2023-03-20T17:08:50.326Z,13.65
2023-03-20T17:11:28.242Z,15.38
2023-03-20T17:13:55.398Z,16.48
2023-03-20T17:16:22.920Z,15.02
2023-03-20T17:19:07.905Z,14.05
2023-03-20T17:21:35.221Z,23.75
2023-03-20T17:24:02.612Z,24.08
2023-03-20T17:26:30.017Z,15.10
2023-03-20T17:28:58.137Z,14.10
2023-03-20T17:31:25.443Z,13.75
2023-03-20T17:33:53.666Z,15.70
2023-03-20T17:36:25.183Z,13.88
2023-03-20T17:38:53.024Z,13.15
2023-03-20T17:41:20.938Z,13.63
2023-03-20T17:43:48.442Z,22.48
2023-03-20T17:46:18.507Z,38.63
2023-03-20T17:48:47.167Z,127.78
2023-03-20T17:51:14.408Z,66.18
2023-03-20T17:53:42.095Z,54.08
2023-03-20T17:56:14.300Z,28.83
2023-03-20T17:58:45.185Z,19.00
2023-03-20T18:01:13.024Z,17.55
2023-03-20T18:03:41.254Z,14.63
2023-03-20T18:06:15.799Z,15.63
2023-03-20T18:08:43.442Z,15.70
2023-03-20T18:11:10.748Z,19.30
2023-03-20T18:13:37.928Z,23.90
2023-03-20T18:16:05.609Z,29.88
2023-03-20T18:18:32.982Z,35.92
2023-03-20T18:21:00.540Z,27.60
2023-03-20T18:23:27.919Z,21.38
2023-03-20T18:25:55.304Z,19.30
2023-03-20T18:28:22.944Z,19.02
2023-03-20T18:30:50.845Z,19.52
2023-03-20T18:33:18.400Z,19.33
2023-03-20T18:35:46.234Z,19.17
2023-03-20T18:38:14.324Z,19.02
2023-03-20T18:40:43.930Z,19.70
2023-03-20T18:43:11.255Z,19.92
2023-03-20T18:45:40.012Z,21.73
2023-03-20T18:48:07.515Z,20.92
2023-03-20T18:50:38.295Z,22.40
2023-03-20T18:55:35.042Z,21.48
2023-03-20T18:58:04.088Z,20.63
2023-03-20T19:00:38.156Z,20.98
2023-03-20T19:03:06.016Z,23.45
2023-03-20T19:05:33.962Z,23.05
2023-03-20T19:08:03.461Z,23.55
2023-03-20T19:10:39.084Z,24.30
2023-03-20T19:13:07.778Z,23.98
2023-03-20T19:15:37.335Z,24.23
2023-03-20T19:18:20.279Z,23.13
2023-03-20T19:20:49.436Z,24.55
2023-03-20T19:23:19.842Z,22.13
2023-03-20T19:25:49.672Z,26.20
2023-03-20T19:28:34.545Z,23.27
2023-03-20T19:31:05.950Z,21.35
2023-03-20T19:33:33.459Z,31.88
2023-03-20T19:36:11.291Z,29.80
2023-03-20T19:38:38.553Z,48.13
2023-03-20T19:41:05.824Z,58.00
2023-03-20T19:43:32.957Z,30.73
2023-03-20T19:46:00.269Z,25.10
2023-03-20T19:51:21.245Z,106.35
2023-03-20T19:53:49.096Z,77.40
2023-03-20T19:56:18.344Z,33.33
2023-03-20T19:58:45.617Z,27.75
2023-03-20T20:01:21.921Z,32.60
2023-03-20T20:03:51.034Z,30.20
2023-03-20T20:06:21.259Z,31.25
2023-03-20T20:08:49.717Z,33.17
2023-03-20T20:11:21.467Z,30.85
2023-03-20T20:14:05.627Z,31.27
2023-03-20T20:16:40.286Z,30.42
2023-03-20T20:19:08.005Z,29.88
2023-03-20T20:24:22.885Z,26.92
2023-03-20T20:27:03.477Z,29.30
2023-03-20T20:29:38.485Z,32.25
2023-03-20T20:32:06.043Z,31.60
2023-03-20T20:35:30.757Z,31.50
2023-03-20T20:38:09.088Z,31.13
2023-03-20T20:40:13.518Z,32.75
2023-03-20T20:42:41.248Z,30.60
2023-03-20T20:45:11.997Z,30.10
2023-03-20T20:47:42.506Z,30.67
2023-03-20T20:50:11.973Z,32.35
2023-03-20T20:52:41.789Z,31.98
2023-03-20T20:55:25.235Z,29.87
2023-03-20T20:57:54.095Z,31.13
2023-03-20T21:00:27.336Z,30.67
2023-03-20T21:02:56.668Z,32.17
2023-03-20T21:05:24.154Z,31.10
2023-03-20T21:07:52.731Z,33.38
2023-03-20T21:10:21.753Z,31.00
2023-03-20T21:12:59.081Z,30.42
2023-03-20T21:15:27.667Z,29.40
2023-03-20T21:18:00.958Z,30.40
2023-03-20T21:20:32.797Z,30.38
2023-03-20T21:23:00.444Z,27.90
2023-03-20T21:25:39.764Z,29.73
2023-03-20T21:28:09.957Z,29.02
2023-03-20T21:30:44.145Z,29.17
2023-03-20T21:33:18.371Z,27.58
2023-03-20T21:35:48.472Z,28.23
2023-03-20T21:41:11.850Z,28.65
2023-03-20T21:43:39.962Z,32.78
2023-03-20T21:46:42.217Z,33.95
2023-03-20T21:57:55.732Z,26.52
2023-03-20T22:02:57.860Z,22.52
2023-03-20T22:11:47.573Z,30.45
2023-03-20T22:17:36.865Z,32.63
2023-03-20T22:20:10.112Z,24.27
2023-03-20T22:23:18.415Z,21.10
2023-03-20T22:25:45.923Z,22.08
2023-03-20T22:28:22.441Z,27.02
2023-03-20T22:44:59.892Z,34.72
2023-03-20T22:47:20.876Z,50.88
2023-03-20T22:49:48.150Z,35.53
2023-03-20T22:52:29.213Z,32.92
2023-03-20T22:54:59.870Z,33.78
2023-03-20T22:57:38.827Z,34.40
2023-03-20T23:00:11.713Z,34.90
2023-03-20T23:02:39.010Z,34.85
2023-03-20T23:05:25.363Z,34.35
2023-03-20T23:07:52.624Z,34.25
2023-03-20T23:10:19.952Z,35.60
2023-03-20T23:12:47.278Z,34.78
2023-03-20T23:15:14.621Z,34.83
2023-03-20T23:17:41.980Z,35.63
2023-03-20T23:20:12.922Z,35.50
2023-03-20T23:22:41.217Z,34.00
2023-03-20T23:25:20.709Z,34.17
2023-03-20T23:27:54.539Z,33.53
2023-03-20T23:30:23.411Z,35.42
2023-03-20T23:35:19.503Z,33.28
2023-03-20T23:37:46.915Z,34.38
2023-03-20T23:40:14.342Z,33.50
2023-03-20T23:42:41.511Z,28.83
2023-03-20T23:45:19.498Z,25.38
2023-03-20T23:47:48.433Z,23.92
2023-03-20T23:50:27.677Z,24.35
2023-03-20T23:53:06.703Z,22.48
2023-03-20T23:55:46.624Z,21.08
2023-03-20T23:58:13.904Z,22.42
